createdAt,value
2023-02-09T00:02:57.046Z,60.97
2023-02-09T00:05:59.993Z,61.12
2023-02-09T00:09:03.460Z,61.31
2023-02-09T00:12:25.594Z,61.39
2023-02-09T00:15:28.197Z,60.97
2023-02-09T00:18:31.576Z,61.18
2023-02-09T00:21:34.196Z,61.06
2023-02-09T00:24:37.439Z,61.10
2023-02-09T00:27:41.401Z,61.04
2023-02-09T00:30:44.318Z,61.04
2023-02-09T00:33:47.095Z,61.31
2023-02-09T00:36:49.693Z,61.11
2023-02-09T00:39:52.297Z,61.40
2023-02-09T00:42:56.285Z,61.06
2023-02-09T00:45:58.937Z,60.97
2023-02-09T00:49:01.612Z,61.38
2023-02-09T00:52:04.183Z,61.54
2023-02-09T00:55:07.335Z,60.99
2023-02-09T00:58:11.267Z,61.32
2023-02-09T01:01:14.271Z,61.34
2023-02-09T01:04:16.976Z,61.28
2023-02-09T01:07:19.607Z,61.42
2023-02-09T01:10:22.136Z,61.68
2023-02-09T01:13:26.017Z,61.18
2023-02-09T01:16:30.345Z,61.35
2023-02-09T01:19:33.071Z,61.70
2023-02-09T01:22:37.241Z,61.74
2023-02-09T01:25:39.862Z,61.77
2023-02-09T01:28:43.966Z,61.31
2023-02-09T01:31:47.020Z,61.88
2023-02-09T01:34:51.571Z,61.81
2023-02-09T01:37:54.117Z,61.89
2023-02-09T01:40:56.664Z,61.65
2023-02-09T01:44:01.860Z,61.68
2023-02-09T01:47:04.891Z,61.72
2023-02-09T01:50:07.818Z,61.67
2023-02-09T01:53:10.369Z,61.56
2023-02-09T01:56:16.119Z,61.59
2023-02-09T01:59:20.062Z,61.88
2023-02-09T02:02:22.656Z,61.67
2023-02-09T02:05:25.208Z,61.98
2023-02-09T02:08:29.204Z,61.88
2023-02-09T02:11:32.840Z,61.71
2023-02-09T02:14:37.630Z,61.50
2023-02-09T02:17:47.217Z,61.41
2023-02-09T02:21:31.273Z,61.80
2023-02-09T02:24:51.731Z,61.43
2023-02-09T02:27:59.627Z,61.67
2023-02-09T02:31:41.908Z,61.67
2023-02-09T02:34:47.137Z,61.93
2023-02-09T02:37:54.468Z,62.24
2023-02-09T02:40:58.375Z,61.91
2023-02-09T02:44:03.643Z,61.79
2023-02-09T02:47:08.402Z,61.43
2023-02-09T02:50:12.762Z,62.02
2023-02-09T02:53:15.299Z,61.80
2023-02-09T02:56:19.815Z,62.12
2023-02-09T02:59:23.657Z,61.82
2023-02-09T03:02:28.963Z,62.14
2023-02-09T03:05:31.662Z,61.63
2023-02-09T03:08:47.206Z,61.73
2023-02-09T03:11:51.213Z,62.03
2023-02-09T03:15:04.602Z,61.69
2023-02-09T03:18:13.015Z,61.90
2023-02-09T03:21:16.364Z,61.78
2023-02-09T03:24:22.980Z,61.80
2023-02-09T03:27:26.196Z,61.79
2023-02-09T03:30:28.767Z,61.98
2023-02-09T03:33:33.276Z,61.99
2023-02-09T03:36:36.932Z,61.84
2023-02-09T03:39:39.513Z,61.62
2023-02-09T03:42:42.061Z,62.17
2023-02-09T03:45:44.626Z,61.89
2023-02-09T03:48:49.931Z,61.61
2023-02-09T03:51:52.535Z,61.98
2023-02-09T03:54:55.132Z,62.05
2023-02-09T03:57:57.721Z,61.85
2023-02-09T04:01:04.660Z,61.78
2023-02-09T04:04:08.657Z,61.52
2023-02-09T04:07:12.104Z,61.63
2023-02-09T04:10:14.741Z,61.62
2023-02-09T04:13:17.314Z,61.84
2023-02-09T04:16:19.964Z,61.68
2023-02-09T04:19:23.925Z,61.49
2023-02-09T04:22:26.519Z,61.51
2023-02-09T04:25:29.101Z,61.44
2023-02-09T04:28:31.746Z,61.51
2023-02-09T04:31:34.821Z,61.36
2023-02-09T04:34:38.830Z,61.38
2023-02-09T04:37:41.388Z,61.77
2023-02-09T04:40:44.163Z,61.39
2023-02-09T04:43:47.041Z,61.58
2023-02-09T04:46:49.646Z,61.77
2023-02-09T04:49:53.546Z,61.68
2023-02-09T04:52:56.134Z,61.68
2023-02-09T04:55:58.715Z,61.64
2023-02-09T04:59:18.727Z,62.10
2023-02-09T05:02:21.304Z,61.52
2023-02-09T05:05:25.230Z,61.76
2023-02-09T05:08:27.812Z,61.56
2023-02-09T05:11:30.416Z,61.63
2023-02-09T05:14:33.000Z,61.40
2023-02-09T05:17:35.545Z,61.69
2023-02-09T05:20:39.617Z,61.37
2023-02-09T05:23:42.310Z,61.78
2023-02-09T05:26:44.901Z,61.63
2023-02-09T05:29:47.446Z,61.91
2023-02-09T05:32:50.036Z,61.43
2023-02-09T05:35:55.625Z,61.69
2023-02-09T05:38:58.190Z,61.63
2023-02-09T05:42:18.970Z,61.70
2023-02-09T05:45:23.169Z,62.04
2023-02-09T05:48:26.033Z,61.87
2023-02-09T05:51:29.958Z,61.87
2023-02-09T05:54:32.484Z,61.72
2023-02-09T05:57:35.033Z,61.97
2023-02-09T06:00:37.577Z,61.99
2023-02-09T06:03:40.174Z,62.19
2023-02-09T06:06:44.204Z,62.28
2023-02-09T06:09:46.796Z,62.40
2023-02-09T06:12:49.418Z,62.20
2023-02-09T06:15:52.081Z,62.33
2023-02-09T06:18:54.657Z,62.58
2023-02-09T06:21:58.720Z,62.78
2023-02-09T06:25:01.280Z,62.57
2023-02-09T06:28:03.903Z,62.43
2023-02-09T06:31:07.083Z,62.99
2023-02-09T06:34:09.808Z,62.79
2023-02-09T06:37:13.745Z,63.05
2023-02-09T06:40:16.447Z,62.72
2023-02-09T06:43:19.036Z,63.20
2023-02-09T06:46:21.615Z,62.79
2023-02-09T06:49:25.257Z,63.10
2023-02-09T06:52:29.510Z,63.25
2023-02-09T06:55:32.233Z,63.15
2023-02-09T06:58:34.885Z,62.81
2023-02-09T07:01:37.539Z,63.34
2023-02-09T07:04:40.162Z,62.73
2023-02-09T07:07:44.170Z,62.95
2023-02-09T07:10:46.946Z,62.96
2023-02-09T07:13:49.714Z,63.06
2023-02-09T07:16:52.315Z,63.03
2023-02-09T07:19:55.329Z,63.21
2023-02-09T07:23:00.645Z,63.30
2023-02-09T07:26:04.178Z,63.23
2023-02-09T07:29:06.834Z,63.09
2023-02-09T07:32:09.492Z,63.44
2023-02-09T07:35:12.060Z,63.04
2023-02-09T07:38:15.941Z,63.43
2023-02-09T07:41:19.648Z,63.35
2023-02-09T07:44:22.312Z,63.38
2023-02-09T07:47:24.935Z,63.01
2023-02-09T07:50:27.506Z,63.25
2023-02-09T07:53:31.418Z,62.96
2023-02-09T07:56:33.966Z,62.98
2023-02-09T07:59:36.532Z,63.02
2023-02-09T08:02:39.389Z,63.29
2023-02-09T08:05:43.361Z,62.01
2023-02-09T08:08:47.478Z,60.08
2023-02-09T08:11:51.176Z,58.21
2023-02-09T08:14:53.776Z,56.52
2023-02-09T08:17:56.378Z,55.18
2023-02-09T08:20:58.984Z,53.84
2023-02-09T08:24:02.894Z,52.55
2023-02-09T08:27:05.426Z,52.02
2023-02-09T08:30:08.711Z,51.11
2023-02-09T08:33:11.230Z,50.54
2023-02-09T08:36:13.858Z,50.17
2023-02-09T08:39:17.724Z,49.79
2023-02-09T08:42:20.256Z,49.88
2023-02-09T08:45:22.988Z,49.57
2023-02-09T08:48:25.634Z,49.35
2023-02-09T08:51:28.226Z,48.94
2023-02-09T08:54:32.155Z,48.65
2023-02-09T08:57:43.429Z,48.18
2023-02-09T09:00:46.361Z,48.08
2023-02-09T09:03:49.462Z,47.85
2023-02-09T09:06:52.138Z,47.53
2023-02-09T09:09:56.044Z,47.22
2023-02-09T09:12:58.646Z,46.98
2023-02-09T09:16:03.674Z,46.85
2023-02-09T09:19:07.378Z,46.76
2023-02-09T09:22:09.957Z,46.42
2023-02-09T09:25:13.870Z,46.17
2023-02-09T09:28:16.522Z,46.02
2023-02-09T09:31:19.200Z,45.65
2023-02-09T09:34:21.825Z,45.14
2023-02-09T09:37:24.553Z,45.06
2023-02-09T09:40:29.372Z,44.53
2023-02-09T09:43:33.508Z,44.48
2023-02-09T09:46:39.116Z,44.35
2023-02-09T09:49:41.748Z,44.06
2023-02-09T09:52:44.892Z,43.78
2023-02-09T09:55:49.074Z,43.75
2023-02-09T09:58:52.507Z,43.71
2023-02-09T10:01:55.133Z,43.85
2023-02-09T10:05:03.460Z,43.75
2023-02-09T10:08:08.082Z,43.91
2023-02-09T10:11:12.884Z,43.66
2023-02-09T10:14:15.931Z,43.58
2023-02-09T10:17:18.510Z,43.73
2023-02-09T10:20:37.377Z,43.84
2023-02-09T10:23:40.975Z,43.94
2023-02-09T10:26:44.953Z,43.72
2023-02-09T10:29:47.568Z,43.96
2023-02-09T10:32:50.142Z,43.89
2023-02-09T10:35:53.359Z,43.82
2023-02-09T10:39:04.974Z,43.60
2023-02-09T10:42:18.355Z,43.53
2023-02-09T10:45:22.752Z,43.70
2023-02-09T10:48:25.846Z,43.76
2023-02-09T10:51:29.851Z,43.79
2023-02-09T10:54:32.407Z,44.02
2023-02-09T10:57:37.546Z,44.00
2023-02-09T11:00:44.635Z,43.93
2023-02-09T11:03:58.396Z,44.15
2023-02-09T11:07:01.895Z,44.12
2023-02-09T11:10:05.167Z,44.30
2023-02-09T11:13:17.886Z,44.00
2023-02-09T11:16:48.331Z,44.02
2023-02-09T11:20:01.383Z,44.25
2023-02-09T11:23:12.373Z,43.86
2023-02-09T11:26:18.453Z,44.33
2023-02-09T11:29:25.440Z,44.01
2023-02-09T11:32:30.182Z,44.02
2023-02-09T11:35:39.770Z,44.07
2023-02-09T11:38:45.398Z,44.26
2023-02-09T11:42:08.300Z,44.50
2023-02-09T11:45:13.126Z,45.34
2023-02-09T11:48:20.892Z,46.24
2023-02-09T11:51:25.679Z,47.21
2023-02-09T11:54:30.628Z,48.20
2023-02-09T11:57:35.636Z,49.28
2023-02-09T12:00:53.461Z,50.04
2023-02-09T12:04:06.120Z,50.53
2023-02-09T12:07:12.613Z,51.25
2023-02-09T12:10:18.982Z,52.05
2023-02-09T12:13:27.796Z,52.25
2023-02-09T12:16:32.591Z,53.15
2023-02-09T12:19:36.318Z,53.27
2023-02-09T12:22:51.608Z,53.47
2023-02-09T12:25:55.511Z,53.83
2023-02-09T12:29:03.395Z,54.20
2023-02-09T12:32:42.300Z,54.31
2023-02-09T12:35:44.982Z,54.77
2023-02-09T12:39:08.100Z,54.96
2023-02-09T12:42:29.536Z,55.11
2023-02-09T12:45:34.311Z,55.14
2023-02-09T12:48:45.956Z,55.62
2023-02-09T12:51:53.930Z,55.60
2023-02-09T12:54:56.652Z,55.89
2023-02-09T12:57:59.346Z,55.79
2023-02-09T13:01:02.020Z,56.31
2023-02-09T13:04:07.682Z,56.47
2023-02-09T13:07:16.097Z,56.46
2023-02-09T13:10:24.445Z,56.91
2023-02-09T13:14:37.745Z,56.55
2023-02-09T13:17:40.945Z,57.05
2023-02-09T13:21:12.405Z,57.23
2023-02-09T13:24:15.709Z,57.48
2023-02-09T13:27:19.175Z,57.71
2023-02-09T13:30:30.515Z,57.64
2023-02-09T13:33:37.281Z,57.93
2023-02-09T13:36:41.922Z,57.88
2023-02-09T13:39:44.913Z,57.82
2023-02-09T13:42:55.781Z,58.29
2023-02-09T13:46:00.476Z,58.30
2023-02-09T13:49:12.772Z,58.53
2023-02-09T13:52:16.996Z,58.36
2023-02-09T13:55:20.635Z,58.26
2023-02-09T13:58:24.512Z,58.38
2023-02-09T14:01:29.970Z,58.43
2023-02-09T14:04:33.964Z,58.83
2023-02-09T14:07:37.196Z,58.60
2023-02-09T14:10:39.807Z,58.77
2023-02-09T14:13:43.540Z,58.62
2023-02-09T14:16:53.753Z,58.85
2023-02-09T14:19:57.360Z,58.70
2023-02-09T14:23:00.871Z,58.94
2023-02-09T14:26:04.177Z,58.91
2023-02-09T14:29:12.272Z,59.14
2023-02-09T14:32:33.328Z,59.46
2023-02-09T14:35:37.266Z,59.25
2023-02-09T14:38:42.491Z,59.53
2023-02-09T14:41:56.507Z,59.48
2023-02-09T14:45:00.444Z,59.73
2023-02-09T14:48:04.533Z,59.63
2023-02-09T14:51:12.245Z,59.27
2023-02-09T14:54:19.750Z,59.57
2023-02-09T14:57:23.284Z,59.47
2023-02-09T15:00:28.138Z,59.48
2023-02-09T15:03:32.132Z,59.68
2023-02-09T15:06:35.455Z,59.92
2023-02-09T15:09:38.029Z,59.59
2023-02-09T15:12:40.604Z,60.08
2023-02-09T15:15:43.651Z,59.94
2023-02-09T15:18:47.640Z,59.86
2023-02-09T15:22:05.310Z,60.04
2023-02-09T15:25:09.593Z,59.86
2023-02-09T15:28:15.482Z,60.14
2023-02-09T15:31:18.198Z,60.36
2023-02-09T15:34:22.180Z,60.15
2023-02-09T15:37:26.350Z,60.35
2023-02-09T15:40:48.221Z,60.34
2023-02-09T15:44:08.728Z,60.19
2023-02-09T15:47:29.024Z,60.62
2023-02-09T15:50:34.279Z,60.50
2023-02-09T15:53:37.349Z,60.60
2023-02-09T15:56:40.015Z,60.64
2023-02-09T15:59:42.690Z,60.72
2023-02-09T16:02:45.261Z,60.82
2023-02-09T16:05:50.263Z,60.64
2023-02-09T16:08:53.855Z,60.80
2023-02-09T16:11:56.508Z,60.64
2023-02-09T16:14:59.129Z,60.78
2023-02-09T16:18:01.674Z,60.81
2023-02-09T16:21:07.136Z,60.66
2023-02-09T16:24:15.665Z,60.92
2023-02-09T16:27:21.679Z,60.82
2023-02-09T16:30:25.403Z,60.86
2023-02-09T16:33:28.160Z,60.71
2023-02-09T16:36:32.087Z,61.08
2023-02-09T16:39:34.663Z,60.89
2023-02-09T16:42:37.220Z,60.80
2023-02-09T16:45:43.153Z,61.05
2023-02-09T16:48:49.097Z,60.91
2023-02-09T16:51:53.031Z,61.31
2023-02-09T16:54:58.432Z,60.98
2023-02-09T16:58:01.827Z,61.35
2023-02-09T17:01:04.714Z,61.05
2023-02-09T17:04:09.391Z,61.00
2023-02-09T17:07:13.344Z,61.31
2023-02-09T17:10:17.136Z,61.07
2023-02-09T17:13:20.538Z,61.18
2023-02-09T17:16:24.550Z,61.22
2023-02-09T17:19:33.093Z,61.24
2023-02-09T17:22:43.183Z,61.39
2023-02-09T17:25:46.678Z,61.13
2023-02-09T17:28:49.449Z,61.27
2023-02-09T17:31:53.808Z,61.20
2023-02-09T17:34:56.577Z,61.55
2023-02-09T17:38:00.785Z,61.58
2023-02-09T17:41:04.936Z,61.57
2023-02-09T17:44:24.285Z,61.27
2023-02-09T17:47:34.320Z,61.44
2023-02-09T17:50:37.729Z,61.62
2023-02-09T17:53:41.698Z,61.22
2023-02-09T17:56:44.341Z,61.59
2023-02-09T17:59:47.742Z,61.21
2023-02-09T18:02:50.310Z,61.67
2023-02-09T18:05:54.268Z,61.63
2023-02-09T18:08:58.152Z,61.75
2023-02-09T18:12:01.888Z,61.48
2023-02-09T18:15:06.527Z,61.64
2023-02-09T18:18:09.081Z,61.67
2023-02-09T18:21:14.464Z,61.49
2023-02-09T18:24:18.479Z,61.57
2023-02-09T18:27:21.580Z,61.71
2023-02-09T18:30:26.049Z,61.82
2023-02-09T18:37:05.954Z,61.77
2023-02-09T18:40:08.748Z,60.92
2023-02-09T18:43:12.016Z,59.97
2023-02-09T18:46:14.873Z,58.91
2023-02-09T18:49:17.531Z,58.09
2023-02-09T18:52:24.993Z,57.08
2023-02-09T18:55:29.264Z,56.74
2023-02-09T18:58:31.797Z,56.04
2023-02-09T19:01:34.798Z,55.60
2023-02-09T19:04:37.407Z,54.98
2023-02-09T19:07:41.994Z,54.19
2023-02-09T19:10:44.650Z,53.81
2023-02-09T19:14:07.430Z,53.49
2023-02-09T19:17:12.257Z,53.11
2023-02-09T19:20:18.040Z,52.72
2023-02-09T19:23:22.028Z,52.38
2023-02-09T19:26:24.564Z,52.09
2023-02-09T19:29:28.628Z,51.97
2023-02-09T19:32:31.201Z,51.67
2023-02-09T19:35:33.810Z,51.41
2023-02-09T19:38:37.719Z,51.05
2023-02-09T19:41:40.417Z,51.14
2023-02-09T19:44:43.015Z,50.81
2023-02-09T19:47:45.544Z,50.79
2023-02-09T19:50:54.463Z,50.58
2023-02-09T19:53:58.401Z,50.43
2023-02-09T19:57:03.494Z,50.42
2023-02-09T20:00:06.585Z,50.14
2023-02-09T20:03:09.237Z,50.10
2023-02-09T20:06:12.902Z,50.01
2023-02-09T20:09:17.048Z,49.77
2023-02-09T20:12:21.352Z,49.73
2023-02-09T20:15:24.338Z,49.60
2023-02-09T20:18:26.936Z,49.49
2023-02-09T20:21:29.669Z,49.47
2023-02-09T20:24:33.561Z,49.31
2023-02-09T20:27:36.156Z,49.46
2023-02-09T20:30:41.367Z,49.28
2023-02-09T20:33:43.904Z,49.24
2023-02-09T20:36:47.997Z,49.08
2023-02-09T20:39:51.916Z,49.00
2023-02-09T20:43:12.133Z,49.09
2023-02-09T20:46:35.950Z,49.02
2023-02-09T20:49:40.424Z,48.93
2023-02-09T20:52:45.514Z,49.00
2023-02-09T20:55:49.460Z,48.83
2023-02-09T20:58:52.024Z,48.87
2023-02-09T21:01:54.599Z,48.83
2023-02-09T21:04:57.309Z,48.69
2023-02-09T21:07:59.980Z,48.67
2023-02-09T21:11:03.981Z,48.69
2023-02-09T21:14:06.566Z,48.53
2023-02-09T21:17:09.108Z,48.40
2023-02-09T21:20:11.787Z,48.54
2023-02-09T21:23:15.412Z,48.48
2023-02-09T21:26:19.649Z,48.36
2023-02-09T21:29:22.207Z,48.44
2023-02-09T21:32:24.748Z,48.29
2023-02-09T21:35:27.425Z,48.21
2023-02-09T21:38:30.060Z,48.31
2023-02-09T21:41:51.598Z,48.26
2023-02-09T21:44:55.064Z,48.35
2023-02-09T21:47:59.300Z,48.23
2023-02-09T21:51:03.925Z,48.25
2023-02-09T21:54:06.711Z,48.14
2023-02-09T21:57:10.603Z,47.96
2023-02-09T22:00:14.482Z,48.14
2023-02-09T22:03:17.041Z,48.19
2023-02-09T22:06:19.760Z,47.92
2023-02-09T22:09:23.945Z,48.00
2023-02-09T22:12:27.918Z,48.07
2023-02-09T22:15:30.500Z,48.02
2023-02-09T22:18:33.020Z,47.98
2023-02-09T22:21:35.571Z,47.88
2023-02-09T22:24:38.180Z,47.86
2023-02-09T22:27:42.201Z,47.83
2023-02-09T22:30:45.144Z,47.78
2023-02-09T22:33:47.997Z,47.88
2023-02-09T22:36:52.221Z,47.80
2023-02-09T22:39:54.743Z,47.69
2023-02-09T22:42:58.661Z,47.60
2023-02-09T22:46:01.375Z,47.62
2023-02-09T22:49:06.204Z,47.53
2023-02-09T22:52:09.601Z,47.49
2023-02-09T22:55:12.236Z,47.48
2023-02-09T22:58:16.143Z,47.44
2023-02-09T23:01:18.794Z,47.48
2023-02-09T23:04:21.426Z,47.42
2023-02-09T23:07:23.988Z,47.31
2023-02-09T23:10:26.613Z,47.25
2023-02-09T23:13:31.812Z,47.01
2023-02-09T23:16:34.338Z,47.24
2023-02-09T23:19:36.916Z,47.04
2023-02-09T23:22:39.564Z,47.08
2023-02-09T23:25:42.159Z,46.98
2023-02-09T23:28:46.119Z,46.97
2023-02-09T23:31:48.907Z,46.98
2023-02-09T23:34:51.464Z,46.84
2023-02-09T23:37:53.985Z,46.84
2023-02-09T23:40:56.516Z,46.76
2023-02-09T23:44:00.446Z,46.75
2023-02-09T23:47:02.996Z,46.69
2023-02-09T23:50:05.919Z,46.97
2023-02-09T23:53:08.495Z,46.61
2023-02-09T23:56:11.210Z,46.47
2023-02-09T23:59:15.916Z,46.45
